Time;durP1;ratioP1;P1;durP2;ratioP2;P2;SDS_P1;SDS_P2;PMS_P1;PMS_P2;Temp;Humidity;BMP_temperature;BMP_pressure;BME280_temperature;BME280_humidity;BME280_pressure;Samples;Min_cycle;Max_cycle;Signal;HPM_P1;HPM_P2
2022/02/04 00:08:23;;;;;;;2.00;1.70;;;22.30;35.90;;;;;;5038318;28;20028;-52
2022/02/04 00:23:35;;;;;;;1.65;1.45;;;22.30;35.80;;;;;;5042880;28;20025;-54
2022/02/04 00:26:15;;;;;;;1.60;1.50;;;22.30;35.80;;;;;;5040420;28;20340;-55
2022/02/04 00:34:18;;;;;;;1.50;1.40;;;22.30;35.80;;;;;;5033205;28;20037;-56
2022/02/04 00:36:51;;;;;;;1.48;1.30;;;22.30;35.80;;;;;;5046895;28;20087;-53
2022/02/04 00:39:26;;;;;;;1.53;1.43;;;22.30;35.70;;;;;;5041411;28;20092;-54
2022/02/04 00:41:53;;;;;;;1.92;1.27;;;22.30;35.80;;;;;;5045549;28;20370;-55
2022/02/04 00:44:24;;;;;;;1.67;1.40;;;22.30;35.70;;;;;;5043256;28;20045;-54
2022/02/04 01:26:33;;;;;;;1.58;1.25;;;22.20;35.90;;;;;;5041534;28;20029;-57
2022/02/04 01:28:59;;;;;;;1.58;1.35;;;22.20;35.90;;;;;;5042983;28;20023;-54
2022/02/04 01:31:25;;;;;;;1.73;1.63;;;22.20;35.90;;;;;;5045494;28;20124;-50
2022/02/04 01:33:53;;;;;;;1.55;1.42;;;22.20;35.90;;;;;;5043744;28;21617;-53
2022/02/04 01:36:19;;;;;;;1.63;1.52;;;22.10;35.90;;;;;;5044602;28;20069;-55
2022/02/04 01:38:45;;;;;;;1.58;1.48;;;22.10;35.80;;;;;;5042027;28;20061;-51
2022/02/04 01:41:11;;;;;;;1.63;1.52;;;22.20;35.90;;;;;;5041844;28;20132;-56
2022/02/04 01:43:38;;;;;;;1.67;1.40;;;22.10;35.90;;;;;;5037808;28;20025;-53
2022/02/04 01:46:06;;;;;;;1.45;1.27;;;22.20;35.90;;;;;;5042459;28;20419;-53
2022/02/04 01:48:33;;;;;;;1.90;1.70;;;22.10;35.90;;;;;;5047788;28;20037;-58
2022/02/04 01:51:00;;;;;;;2.08;1.52;;;22.10;35.90;;;;;;5043386;28;20060;-54
2022/02/04 01:53:30;;;;;;;1.60;1.40;;;22.10;35.90;;;;;;5047173;28;20049;-54
2022/02/04 01:56:02;;;;;;;1.92;1.65;;;22.10;35.90;;;;;;5038514;28;20131;-55
2022/02/04 01:58:29;;;;;;;1.65;1.55;;;22.10;35.90;;;;;;5042167;28;20344;-55
2022/02/04 02:00:55;;;;;;;2.22;1.60;;;22.10;35.90;;;;;;5042294;28;20415;-54
2022/02/04 02:03:21;;;;;;;1.75;1.50;;;22.10;35.90;;;;;;5041220;28;20025;-54
2022/02/04 02:05:48;;;;;;;1.38;1.27;;;22.10;35.90;;;;;;5041139;28;20031;-54
2022/02/04 02:08:17;;;;;;;1.70;1.55;;;22.10;35.90;;;;;;5042042;28;20021;-56
2022/02/04 02:10:45;;;;;;;1.45;1.35;;;22.10;35.90;;;;;;5045377;28;20013;-53
2022/02/04 02:51:29;;;;;;;1.45;1.20;;;22.00;36.00;;;;;;5044544;28;20036;-54
2022/02/04 02:59:21;;;;;;;2.50;1.30;;;22.00;36.00;;;;;;5038086;28;20101;-52
2022/02/04 03:01:50;;;;;;;1.23;1.13;;;21.90;36.00;;;;;;5046563;28;20036;-52
2022/02/04 03:04:17;;;;;;;1.10;1.00;;;22.00;36.70;;;;;;5054417;28;20506;-57
2022/02/04 03:06:46;;;;;;;1.35;1.15;;;22.00;36.00;;;;;;5045445;28;20124;-53
2022/02/04 03:09:13;;;;;;;1.17;1.08;;;22.00;36.00;;;;;;5037136;28;20029;-55
2022/02/04 03:11:39;;;;;;;1.50;1.15;;;21.90;36.60;;;;;;5042332;28;20021;-53
2022/02/04 03:14:06;;;;;;;1.23;1.13;;;22.00;36.00;;;;;;5037253;28;20075;-54
2022/02/04 03:16:33;;;;;;;1.50;1.23;;;21.90;36.00;;;;;;5051777;28;20036;-57
2022/02/04 03:19:01;;;;;;;1.65;1.00;;;21.90;36.00;;;;;;5042967;28;20127;-49
2022/02/04 03:21:32;;;;;;;1.08;0.90;;;21.90;36.70;;;;;;5049213;28;20456;-48
2022/02/04 03:24:05;;;;;;;1.20;1.10;;;21.90;36.00;;;;;;5039894;28;20029;-49
2022/02/04 03:28:57;;;;;;;1.15;0.95;;;21.90;36.10;;;;;;5038313;28;20025;-51
2022/02/04 03:31:26;;;;;;;3.78;1.15;;;21.90;36.00;;;;;;5041224;28;20026;-53
2022/02/04 03:33:52;;;;;;;1.13;1.00;;;21.90;36.10;;;;;;5043748;28;20021;-54
2022/02/04 03:36:18;;;;;;;0.82;0.82;;;21.90;36.10;;;;;;5045459;28;20104;-53
2022/02/04 03:38:44;;;;;;;1.20;1.10;;;21.90;36.10;;;;;;5054157;28;20021;-53
2022/02/04 03:41:11;;;;;;;1.17;1.08;;;21.90;36.70;;;;;;5042362;28;20029;-58
2022/02/04 03:43:38;;;;;;;1.30;1.10;;;21.90;36.10;;;;;;5043665;28;20341;-52
2022/02/04 03:46:05;;;;;;;1.27;1.02;;;21.90;36.10;;;;;;5039563;28;20088;-51
2022/02/04 03:48:32;;;;;;;1.35;1.00;;;21.90;36.10;;;;;;5038209;28;20371;-52
2022/02/04 03:50:58;;;;;;;1.33;1.23;;;21.90;36.10;;;;;;5022292;28;20060;-53
2022/02/04 03:53:24;;;;;;;0.98;0.88;;;21.90;36.10;;;;;;5043406;28;20020;-53
2022/02/04 03:55:50;;;;;;;1.10;0.93;;;21.90;36.10;;;;;;5052135;28;20025;-52
2022/02/04 03:58:16;;;;;;;1.20;1.10;;;21.90;36.10;;;;;;5031298;28;20037;-48
2022/02/04 04:00:41;;;;;;;1.10;1.00;;;21.90;36.10;;;;;;5053184;28;20026;-49
2022/02/04 04:03:07;;;;;;;1.02;0.80;;;21.90;36.10;;;;;;5046586;28;20033;-51
2022/02/04 04:05:37;;;;;;;0.77;0.73;;;21.90;36.10;;;;;;5048159;28;20057;-49
2022/02/04 04:08:03;;;;;;;1.02;0.88;;;21.80;36.10;;;;;;5053163;28;20441;-49
2022/02/04 04:10:37;;;;;;;0.90;0.73;;;21.90;36.10;;;;;;5051212;28;20052;-50
2022/02/04 04:13:03;;;;;;;0.90;0.80;;;21.80;36.10;;;;;;5038223;28;20124;-50
2022/02/04 04:15:29;;;;;;;1.25;1.00;;;21.80;36.10;;;;;;5040485;28;20100;-49
2022/02/04 04:17:54;;;;;;;1.38;1.02;;;21.80;36.10;;;;;;5049294;28;20040;-50
2022/02/04 04:20:23;;;;;;;1.45;1.30;;;21.80;36.10;;;;;;5051186;28;20051;-53
2022/02/04 04:22:50;;;;;;;0.70;0.70;;;21.80;36.10;;;;;;5043380;28;20748;-54
2022/02/04 04:25:17;;;;;;;1.42;0.90;;;21.80;36.10;;;;;;5035938;28;20119;-51
2022/02/04 04:27:43;;;;;;;1.00;0.90;;;21.80;36.10;;;;;;5045107;28;20025;-55
2022/02/04 04:30:12;;;;;;;1.40;0.80;;;21.80;36.10;;;;;;5052491;28;20364;-56
2022/02/04 04:32:38;;;;;;;0.80;0.75;;;21.80;36.10;;;;;;5051506;28;20052;-53
2022/02/04 04:35:06;;;;;;;1.02;0.80;;;21.80;36.10;;;;;;5043200;28;20459;-57
2022/02/04 04:37:33;;;;;;;1.23;0.90;;;21.80;36.10;;;;;;5036711;28;20030;-57
2022/02/04 04:45:50;;;;;;;0.52;0.52;;;21.80;36.10;;;;;;5047473;28;20030;-55
2022/02/04 05:29:05;;;;;;;0.88;0.82;;;21.70;36.30;;;;;;5036076;28;20056;-57
2022/02/04 05:31:32;;;;;;;0.70;0.70;;;21.70;36.30;;;;;;5041110;28;20082;-56
2022/02/04 05:33:58;;;;;;;1.00;0.60;;;21.60;36.20;;;;;;5051865;28;20025;-53
2022/02/04 05:36:24;;;;;;;1.10;0.70;;;21.70;36.30;;;;;;5045398;28;20039;-55
2022/02/04 05:38:52;;;;;;;0.68;0.60;;;21.70;36.30;;;;;;5051004;28;20025;-55
2022/02/04 05:41:24;;;;;;;0.55;0.50;;;21.60;36.20;;;;;;5019770;28;20453;-53
2022/02/04 05:43:52;;;;;;;1.20;0.68;;;21.70;36.20;;;;;;5049684;28;20428;-56
2022/02/04 05:46:24;;;;;;;0.80;0.60;;;21.60;36.20;;;;;;5038414;28;20022;-57
2022/02/04 05:48:53;;;;;;;0.75;0.75;;;21.60;36.20;;;;;;5045124;28;20343;-55
2022/02/04 05:53:56;;;;;;;0.60;0.60;;;21.60;36.20;;;;;;5038289;28;20028;-51
2022/02/04 06:01:35;;;;;;;0.65;0.60;;;21.60;36.20;;;;;;5040951;28;20140;-54
2022/02/04 06:22:19;;;;;;;0.88;0.50;;;21.60;36.30;;;;;;5035490;28;20115;-53
2022/02/04 06:24:49;;;;;;;0.50;0.50;;;21.60;36.30;;;;;;5040277;28;20036;-56
2022/02/04 06:27:16;;;;;;;0.80;0.60;;;21.60;36.30;;;;;;5036530;28;20029;-54
2022/02/04 06:29:43;;;;;;;0.85;0.50;;;21.50;36.20;;;;;;5049168;28;20436;-53
2022/02/04 06:32:09;;;;;;;0.50;0.50;;;21.60;36.30;;;;;;5050341;28;20443;-53
2022/02/04 06:34:35;;;;;;;0.73;0.50;;;21.50;36.20;;;;;;5050222;28;20028;-50
2022/02/04 06:37:01;;;;;;;0.40;0.40;;;21.50;36.20;;;;;;5047290;28;20029;-53
2022/02/04 06:39:27;;;;;;;0.63;0.60;;;21.50;36.20;;;;;;5034698;28;20021;-54
2022/02/04 06:41:52;;;;;;;0.60;0.60;;;21.50;36.30;;;;;;5030411;28;20024;-53
2022/02/04 06:44:19;;;;;;;0.50;0.50;;;21.50;36.30;;;;;;5051083;28;20337;-54
2022/02/04 06:46:45;;;;;;;0.95;0.50;;;21.50;36.20;;;;;;5048631;28;20448;-56
2022/02/04 06:49:11;;;;;;;0.80;0.50;;;21.50;36.20;;;;;;5051105;28;20059;-50
2022/02/04 06:51:37;;;;;;;0.55;0.50;;;21.50;36.20;;;;;;5039844;28;20018;-56
2022/02/04 06:54:03;;;;;;;0.50;0.50;;;21.50;36.30;;;;;;5041637;28;20052;-56
2022/02/04 06:56:33;;;;;;;0.85;0.75;;;21.50;36.30;;;;;;5047244;28;20071;-51
2022/02/04 06:58:59;;;;;;;0.60;0.47;;;21.50;36.30;;;;;;5049314;28;20035;-55
2022/02/04 07:01:28;;;;;;;0.75;0.50;;;21.50;36.30;;;;;;5039970;28;20025;-55
2022/02/04 07:03:54;;;;;;;0.50;0.50;;;21.50;36.30;;;;;;5016873;28;20095;-56
2022/02/04 07:06:20;;;;;;;0.32;0.32;;;21.50;36.30;;;;;;5042793;28;20025;-52
2022/02/04 07:14:23;;;;;;;0.60;0.40;;;21.50;36.20;;;;;;5037175;28;20037;-55
2022/02/04 07:19:49;;;;;;;0.50;0.50;;;21.50;36.30;;;;;;5044062;28;20051;-53
2022/02/04 07:22:19;;;;;;;0.70;0.50;;;21.50;36.30;;;;;;5051610;28;20059;-55
2022/02/04 07:24:50;;;;;;;1.10;0.47;;;21.50;36.30;;;;;;5044509;28;20055;-55
2022/02/04 07:27:20;;;;;;;0.52;0.50;;;21.50;36.30;;;;;;5038968;28;20075;-56
2022/02/04 07:29:48;;;;;;;0.60;0.40;;;21.50;36.30;;;;;;5042216;28;20017;-52
2022/02/04 07:42:47;;;;;;;;;;;21.40;36.30;;;;;;5027892;28;20043;-51
2022/02/04 07:45:12;;;;;;;2.70;0.60;;;21.40;36.40;;;;;;5047146;28;20012;-53
2022/02/04 07:47:38;;;;;;;0.75;0.50;;;21.40;36.50;;;;;;5050098;28;20055;-50
2022/02/04 07:50:05;;;;;;;0.55;0.40;;;21.40;36.50;;;;;;5028006;28;20454;-55
2022/02/04 07:52:31;;;;;;;0.40;0.40;;;21.50;36.50;;;;;;5044684;28;20021;-56
2022/02/04 07:54:57;;;;;;;0.57;0.40;;;21.60;36.50;;;;;;5045651;28;20111;-54
2022/02/04 07:57:23;;;;;;;1.17;0.50;;;21.70;36.50;;;;;;5049210;28;20053;-57
2022/02/04 07:59:49;;;;;;;1.95;0.30;;;21.70;36.40;;;;;;5043187;28;20044;-57
2022/02/04 08:02:15;;;;;;;0.55;0.30;;;21.80;36.40;;;;;;5048317;28;20082;-55
2022/02/04 08:04:43;;;;;;;0.47;0.40;;;22.00;36.40;;;;;;5050399;28;20033;-55
2022/02/04 08:07:13;;;;;;;0.68;0.40;;;22.00;36.30;;;;;;5044479;28;20348;-48
2022/02/04 08:10:05;;;;;;;0.75;0.43;;;22.10;36.20;;;;;;5043569;28;20083;-55
2022/02/04 08:28:27;;;;;;;2.28;1.15;;;22.60;35.80;;;;;;5045309;28;20040;-56
2022/02/04 09:02:42;;;;;;;0.32;0.30;;;23.40;35.20;;;;;;5039616;28;20139;-52
2022/02/04 09:05:13;;;;;;;0.40;0.30;;;23.40;35.10;;;;;;5025979;28;20029;-52
2022/02/04 09:10:16;;;;;;;0.40;0.30;;;23.50;35.00;;;;;;5037155;28;20104;-52
2022/02/04 09:18:36;;;;;;;0.60;0.40;;;23.60;34.90;;;;;;5046951;28;20495;-51
2022/02/04 09:23:24;;;;;;;0.68;0.30;;;23.70;34.80;;;;;;5045299;28;20041;-57
2022/02/04 09:25:51;;;;;;;0.57;0.40;;;23.70;34.80;;;;;;5046096;28;20444;-53
2022/02/04 09:28:17;;;;;;;0.57;0.35;;;23.80;34.80;;;;;;5041842;28;20036;-54
2022/02/04 09:30:43;;;;;;;0.93;0.40;;;23.80;34.70;;;;;;5027185;28;20138;-52
2022/02/04 09:33:12;;;;;;;0.30;0.30;;;23.90;34.70;;;;;;5044241;28;20037;-54
2022/02/04 09:35:39;;;;;;;0.93;0.40;;;23.90;34.70;;;;;;5044141;28;20443;-56
2022/02/04 09:38:05;;;;;;;2.28;0.40;;;23.90;34.60;;;;;;5042189;28;20063;-52
2022/02/04 09:40:31;;;;;;;0.60;0.30;;;23.90;34.60;;;;;;5040003;28;20033;-55
2022/02/04 09:42:57;;;;;;;0.40;0.30;;;24.00;34.60;;;;;;5042881;28;20020;-54
2022/02/04 09:45:26;;;;;;;0.47;0.40;;;24.00;34.60;;;;;;5043035;28;20036;-55
2022/02/04 09:48:04;;;;;;;0.57;0.35;;;24.00;34.60;;;;;;5043661;28;20029;-50
2022/02/04 09:50:32;;;;;;;0.82;0.30;;;24.00;34.60;;;;;;5046483;28;20053;-50
2022/02/04 10:07:26;;;;;;;0.80;0.40;;;23.60;34.80;;;;;;5044080;28;20060;-47
2022/02/04 10:10:23;;;;;;;0.38;0.35;;;23.60;34.80;;;;;;5042582;28;20017;-54
2022/02/04 10:18:45;;;;;;;0.70;0.50;;;23.40;35.00;;;;;;5045330;28;20037;-54
2022/02/04 10:21:12;;;;;;;0.65;0.40;;;23.30;35.10;;;;;;5042292;28;20329;-47
2022/02/04 10:23:52;;;;;;;0.40;0.35;;;23.30;35.20;;;;;;5042717;28;20100;-50
2022/02/04 10:26:19;;;;;;;0.90;0.40;;;23.30;35.20;;;;;;5041606;28;20483;-51
2022/02/04 10:28:45;;;;;;;1.35;0.40;;;23.20;35.20;;;;;;5028253;28;20066;-50
2022/02/04 10:31:25;;;;;;;0.65;0.38;;;23.20;35.20;;;;;;5042742;28;20032;-50
2022/02/04 10:34:14;;;;;;;0.25;0.25;;;23.20;35.20;;;;;;5041828;28;20112;-53
2022/02/04 10:39:32;;;;;;;0.45;0.28;;;23.20;35.30;;;;;;5041629;28;20167;-55
2022/02/04 10:42:08;;;;;;;0.98;0.30;;;23.20;35.30;;;;;;5045197;28;20475;-50
2022/02/04 10:44:46;;;;;;;0.20;0.20;;;23.20;35.30;;;;;;5046157;28;20029;-49
2022/02/04 10:47:37;;;;;;;0.28;0.28;;;23.20;35.30;;;;;;5050286;28;20036;-49
2022/02/04 10:50:12;;;;;;;0.32;0.30;;;23.30;35.20;;;;;;5048518;28;20160;-54
2022/02/04 11:44:23;;;;;;;0.30;0.20;;;23.20;36.50;;;;;;5003561;28;20060;-56
2022/02/04 11:52:41;;;;;;;0.50;0.40;;;23.40;36.60;;;;;;5042858;28;20444;-58
2022/02/04 11:55:10;;;;;;;1.48;0.30;;;23.40;36.60;;;;;;5049855;28;20029;-59
2022/02/04 11:57:49;;;;;;;0.57;0.20;;;23.40;36.50;;;;;;5043025;28;20359;-55
2022/02/04 12:00:16;;;;;;;0.40;0.25;;;23.50;36.60;;;;;;5042592;28;20024;-56
2022/02/04 12:02:45;;;;;;;0.95;0.20;;;23.50;36.60;;;;;;5048067;28;20065;-60
2022/02/04 12:05:16;;;;;;;0.30;0.25;;;23.60;36.70;;;;;;5046134;28;20029;-54
2022/02/04 12:07:50;;;;;;;7.20;0.40;;;23.60;36.80;;;;;;5051195;28;20020;-56
2022/02/04 12:10:16;;;;;;;;;;;23.60;36.80;;;;;;5042702;28;20040;-57
2022/02/04 12:15:37;;;;;;;0.47;0.35;;;23.70;36.80;;;;;;5043246;28;20033;-59
2022/02/04 12:18:13;;;;;;;0.30;0.20;;;23.70;36.80;;;;;;5049595;28;20060;-58
2022/02/04 12:20:55;;;;;;;4.45;0.38;;;23.60;36.70;;;;;;5032342;28;20103;-54
2022/02/04 12:23:41;;;;;;;0.60;0.30;;;23.60;36.60;;;;;;5045803;28;20412;-56
2022/02/04 12:26:11;;;;;;;0.55;0.20;;;23.60;36.50;;;;;;5051817;28;20029;-56
2022/02/04 12:28:58;;;;;;;2.45;0.40;;;23.70;36.50;;;;;;5046462;28;20367;-57
2022/02/04 12:31:32;;;;;;;0.20;0.20;;;23.70;36.40;;;;;;5055862;28;20032;-53
2022/02/04 12:34:01;;;;;;;0.40;0.25;;;23.70;36.40;;;;;;5033758;28;20036;-57
2022/02/04 12:36:35;;;;;;;0.50;0.40;;;23.60;36.30;;;;;;5051117;28;20031;-56
2022/02/04 12:39:11;;;;;;;0.68;0.32;;;23.60;36.20;;;;;;5033899;28;20381;-56
2022/02/04 12:41:44;;;;;;;0.57;0.40;;;23.60;36.10;;;;;;5025707;28;20029;-55
2022/02/04 12:44:17;;;;;;;0.30;0.30;;;23.60;36.10;;;;;;5052450;28;20024;-56
2022/02/04 12:46:56;;;;;;;1.05;0.25;;;23.60;36.10;;;;;;5055579;28;20041;-58
2022/02/04 12:49:27;;;;;;;0.50;0.25;;;23.60;36.00;;;;;;5050328;28;20018;-57
2022/02/04 12:52:21;;;;;;;0.50;0.30;;;23.60;36.00;;;;;;5039458;28;21539;-57
2022/02/04 12:55:04;;;;;;;0.50;0.20;;;23.60;36.00;;;;;;5053873;28;20444;-57
2022/02/04 12:57:38;;;;;;;0.70;0.25;;;23.60;36.00;;;;;;5053862;28;20049;-55
2022/02/04 13:08:23;;;;;;;0.35;0.20;;;23.50;35.90;;;;;;5043727;28;20017;-56
2022/02/04 13:11:09;;;;;;;1.13;0.38;;;23.60;35.90;;;;;;5020753;28;20033;-57
2022/02/04 13:13:48;;;;;;;1.45;0.40;;;23.60;35.90;;;;;;5051139;28;20044;-56
2022/02/04 13:16:35;;;;;;;0.80;0.40;;;23.50;35.90;;;;;;5034318;28;20032;-58
2022/02/04 13:19:05;;;;;;;2.17;0.35;;;23.50;35.90;;;;;;5054523;28;20036;-57
2022/02/04 13:21:37;;;;;;;2.17;0.30;;;23.50;35.90;;;;;;5049244;28;20394;-54
2022/02/04 13:24:06;;;;;;;0.70;0.30;;;23.50;35.90;;;;;;5019602;28;20033;-56
2022/02/04 13:26:34;;;;;;;0.82;0.30;;;23.50;35.80;;;;;;5035397;28;20152;-58
2022/02/04 13:29:04;;;;;;;0.82;0.30;;;23.50;35.80;;;;;;5033726;28;20124;-54
2022/02/04 13:31:37;;;;;;;0.45;0.10;;;23.50;35.80;;;;;;5036401;28;20448;-57
2022/02/04 13:34:13;;;;;;;0.30;0.30;;;23.60;35.90;;;;;;5041580;28;20037;-58
2022/02/04 13:36:51;;;;;;;0.40;0.28;;;23.60;35.90;;;;;;5016626;28;20042;-58
2022/02/04 13:42:18;;;;;;;0.75;0.30;;;23.60;36.50;;;;;;5018092;28;20048;-56
2022/02/04 13:45:04;;;;;;;0.30;0.25;;;23.60;35.80;;;;;;5027437;28;20103;-58
2022/02/04 13:48:34;;;;;;;0.50;0.25;;;23.60;35.80;;;;;;5049889;28;20033;-58
2022/02/04 13:53:22;;;;;;;0.40;0.20;;;23.60;35.70;;;;;;5050050;28;20046;-55
2022/02/04 13:56:09;;;;;;;0.50;0.40;;;23.60;35.70;;;;;;5046715;28;20047;-56
2022/02/04 13:58:52;;;;;;;0.47;0.28;;;23.60;35.80;;;;;;5044606;28;20045;-58
2022/02/04 14:01:28;;;;;;;0.63;0.20;;;23.50;35.70;;;;;;5034963;28;20096;-57
2022/02/04 14:04:01;;;;;;;0.50;0.40;;;23.60;35.80;;;;;;5020116;28;21770;-54
2022/02/04 14:06:30;;;;;;;0.30;0.28;;;23.50;35.80;;;;;;5041267;28;20090;-57
2022/02/04 14:09:07;;;;;;;0.85;0.28;;;23.60;35.80;;;;;;5038609;28;20515;-57
2022/02/04 14:11:39;;;;;;;0.30;0.30;;;23.60;35.80;;;;;;5050646;28;20071;-58
2022/02/04 14:14:19;;;;;;;0.52;0.38;;;23.50;35.70;;;;;;5039867;28;20031;-56
2022/02/04 14:16:56;;;;;;;0.25;0.25;;;23.60;35.80;;;;;;5035413;28;20021;-55
2022/02/04 14:19:29;;;;;;;0.55;0.32;;;23.60;35.90;;;;;;5047229;28;20025;-57
2022/02/04 14:21:59;;;;;;;0.35;0.25;;;23.50;35.90;;;;;;5058931;28;20028;-58
2022/02/04 14:24:27;;;;;;;0.38;0.30;;;23.60;35.90;;;;;;5033292;28;20037;-59
2022/02/04 14:26:55;;;;;;;0.82;0.30;;;23.60;35.90;;;;;;5039141;28;20017;-57
2022/02/04 14:29:35;;;;;;;0.50;0.30;;;23.50;35.90;;;;;;5028161;28;20026;-57
2022/02/04 14:32:23;;;;;;;2.40;0.40;;;23.50;36.00;;;;;;5038849;28;20021;-60
2022/02/04 14:35:10;;;;;;;0.22;0.20;;;23.50;36.00;;;;;;5033293;28;20709;-59
2022/02/04 14:49:17;;;;;;;0.55;0.40;;;23.50;36.10;;;;;;5031088;28;20036;-59
2022/02/04 14:51:56;;;;;;;;;;;23.40;36.10;;;;;;5056783;28;20075;-58
2022/02/04 15:02:50;;;;;;;4.30;2.40;;;23.20;35.70;;;;;;5028436;28;20037;-58
2022/02/04 15:05:20;;;;;;;6.10;2.95;;;23.20;35.40;;;;;;5039037;28;20029;-58
2022/02/04 15:07:49;;;;;;;3.90;2.45;;;23.20;35.20;;;;;;5042706;28;20033;-57
2022/02/04 15:10:28;;;;;;;4.57;2.60;;;23.20;34.90;;;;;;5049137;28;20035;-58
2022/02/04 15:13:00;;;;;;;3.63;1.88;;;23.20;34.60;;;;;;5063247;28;20049;-58
2022/02/04 15:15:34;;;;;;;2.45;1.50;;;23.20;34.30;;;;;;5025528;28;20048;-58
2022/02/04 15:18:04;;;;;;;2.10;1.42;;;23.20;34.00;;;;;;5033770;28;20021;-61
2022/02/04 15:20:32;;;;;;;2.35;1.33;;;23.20;33.70;;;;;;5041877;28;20174;-54
2022/02/04 15:23:02;;;;;;;1.52;0.98;;;23.20;33.50;;;;;;5045267;28;20025;-57
2022/02/04 15:25:29;;;;;;;1.70;1.00;;;23.20;33.30;;;;;;5036128;28;20052;-56
2022/02/04 15:28:33;;;;;;;1.40;0.77;;;23.20;33.10;;;;;;5042320;28;20028;-54
2022/02/04 15:31:00;;;;;;;1.10;0.70;;;23.20;32.90;;;;;;5052414;28;20017;-55
2022/02/04 15:33:32;;;;;;;1.08;0.65;;;23.20;32.70;;;;;;5044042;28;20029;-58
2022/02/04 15:35:59;;;;;;;0.60;0.40;;;23.20;32.50;;;;;;5037381;28;20079;-54
2022/02/04 15:38:34;;;;;;;0.68;0.40;;;23.30;32.30;;;;;;5043406;28;20035;-53
2022/02/04 15:41:03;;;;;;;0.73;0.40;;;23.20;32.10;;;;;;5039125;28;20094;-54
2022/02/04 15:43:31;;;;;;;0.47;0.30;;;23.30;32.00;;;;;;5034100;28;20032;-55
2022/02/04 15:54:39;;;;;;;0.45;0.30;;;23.20;31.60;;;;;;5054497;28;20021;-53
2022/02/04 15:57:31;;;;;;;0.25;0.25;;;23.20;31.60;;;;;;5055021;28;20049;-52
2022/02/04 16:02:41;;;;;;;0.85;0.32;;;23.20;31.50;;;;;;5050749;28;20036;-55
2022/02/04 16:05:12;;;;;;;0.22;0.20;;;23.20;31.50;;;;;;5038690;28;20021;-58
2022/02/04 16:07:43;;;;;;;0.30;0.30;;;23.20;31.50;;;;;;5048514;28;20118;-55
2022/02/04 16:13:08;;;;;;;0.35;0.30;;;23.20;32.10;;;;;;5044485;28;20025;-59
2022/02/04 16:15:59;;;;;;;0.30;0.25;;;23.20;31.40;;;;;;5047391;28;20033;-58
2022/02/04 16:18:37;;;;;;;0.30;0.20;;;23.20;31.40;;;;;;5018521;28;20171;-60
2022/02/04 16:21:24;;;;;;;0.10;0.10;;;23.20;31.30;;;;;;5034395;28;20048;-58
2022/02/04 16:24:19;;;;;;;0.63;0.38;;;23.10;31.20;;;;;;5036064;28;20033;-59
2022/02/04 16:27:00;;;;;;;0.40;0.20;;;23.10;31.20;;;;;;5051014;28;20398;-58
2022/02/04 16:29:27;;;;;;;0.17;0.17;;;23.10;31.10;;;;;;5044254;28;20466;-59
2022/02/04 16:31:56;;;;;;;0.52;0.30;;;23.10;31.20;;;;;;5046591;28;20021;-61
2022/02/04 16:34:24;;;;;;;0.32;0.22;;;23.20;31.30;;;;;;5035642;28;20098;-59
2022/02/04 16:36:53;;;;;;;0.30;0.20;;;23.30;31.40;;;;;;5053230;28;20043;-58
2022/02/04 16:39:23;;;;;;;0.40;0.30;;;23.30;31.40;;;;;;5054966;28;20056;-58
2022/02/04 16:42:22;;;;;;;0.70;0.22;;;23.30;32.10;;;;;;5017430;28;20053;-60
2022/02/04 16:44:42;;;;;;;0.40;0.20;;;23.40;31.50;;;;;;5033737;28;20112;-59
2022/02/04 16:47:10;;;;;;;1.13;0.30;;;23.40;31.50;;;;;;5036855;28;20559;-57
2022/02/04 16:49:38;;;;;;;0.50;0.30;;;23.40;31.50;;;;;;5018121;28;20032;-57
2022/02/04 16:52:06;;;;;;;0.20;0.20;;;23.40;31.60;;;;;;5046334;28;20108;-59
2022/02/04 16:54:33;;;;;;;0.43;0.30;;;23.50;31.60;;;;;;5049656;28;20025;-58
2022/02/04 16:57:05;;;;;;;0.30;0.22;;;23.50;31.70;;;;;;5037968;28;20488;-57
2022/02/04 16:59:32;;;;;;;0.82;0.40;;;23.50;31.70;;;;;;5026946;28;20029;-57
2022/02/04 17:02:00;;;;;;;0.43;0.20;;;23.50;31.70;;;;;;5025590;28;20119;-55
2022/02/04 17:04:26;;;;;;;0.38;0.30;;;23.50;31.70;;;;;;5035289;28;20105;-58
2022/02/04 17:07:05;;;;;;;0.80;0.38;;;23.50;31.80;;;;;;5033476;28;20328;-58
2022/02/04 17:09:41;;;;;;;0.70;0.30;;;23.50;31.80;;;;;;5030536;28;20368;-57
2022/02/04 17:12:12;;;;;;;1.13;0.40;;;23.50;31.90;;;;;;5034202;28;20029;-60
2022/02/04 17:14:48;;;;;;;0.93;0.40;;;23.50;31.90;;;;;;5024674;28;20026;-56
2022/02/04 17:17:23;;;;;;;0.50;0.30;;;23.50;31.90;;;;;;5015137;28;20022;-58
2022/02/04 17:20:02;;;;;;;0.40;0.30;;;23.50;31.90;;;;;;5028274;28;20021;-56
2022/02/04 17:22:32;;;;;;;0.45;0.40;;;23.50;31.90;;;;;;5017769;28;20429;-60
2022/02/04 17:25:03;;;;;;;0.57;0.30;;;23.50;31.90;;;;;;5044207;28;20033;-59
2022/02/04 17:27:39;;;;;;;0.40;0.30;;;23.50;31.90;;;;;;5034174;28;20053;-54
2022/02/04 17:30:08;;;;;;;0.50;0.30;;;23.50;32.00;;;;;;5016240;28;20045;-59
2022/02/04 17:32:44;;;;;;;0.60;0.40;;;23.50;32.00;;;;;;5012266;28;20045;-59
2022/02/04 17:35:12;;;;;;;0.55;0.43;;;23.50;32.70;;;;;;5014452;28;20034;-59
2022/02/04 17:37:43;;;;;;;0.82;0.32;;;23.50;32.10;;;;;;5016751;28;20037;-55
2022/02/04 17:40:13;;;;;;;2.42;0.38;;;23.50;32.20;;;;;;5030550;28;20037;-58
2022/02/04 17:42:46;;;;;;;0.63;0.50;;;23.50;32.80;;;;;;5016855;28;20041;-58
2022/02/04 17:45:20;;;;;;;0.60;0.40;;;23.50;32.20;;;;;;5033445;28;20460;-58
2022/02/04 17:48:02;;;;;;;0.90;0.40;;;23.40;32.20;;;;;;5043210;28;20021;-59
2022/02/04 17:50:33;;;;;;;1.20;0.30;;;23.40;32.20;;;;;;5031973;28;20029;-59
2022/02/04 17:53:12;;;;;;;1.10;0.40;;;23.40;32.90;;;;;;5031558;28;20104;-58
2022/02/04 17:55:48;;;;;;;1.52;0.50;;;23.40;32.20;;;;;;5029655;28;20577;-60
2022/02/04 17:58:25;;;;;;;0.45;0.40;;;23.40;32.30;;;;;;5045797;28;20076;-56
2022/02/04 18:06:13;;;;;;;1.33;0.50;;;23.40;32.30;;;;;;5033985;28;20040;-60
2022/02/04 18:08:41;;;;;;;0.43;0.30;;;23.40;32.30;;;;;;5040692;28;20302;-59
2022/02/04 18:11:07;;;;;;;0.47;0.40;;;23.40;32.30;;;;;;5036640;28;20017;-58
2022/02/04 18:13:36;;;;;;;0.40;0.30;;;23.40;32.30;;;;;;5012829;28;20033;-60
2022/02/04 18:16:05;;;;;;;0.50;0.30;;;23.40;32.30;;;;;;5034666;28;20033;-60
2022/02/04 18:18:52;;;;;;;0.40;0.30;;;23.40;32.30;;;;;;5032417;28;20034;-59
2022/02/04 18:21:25;;;;;;;0.88;0.47;;;23.30;32.20;;;;;;5034231;28;20112;-60
2022/02/04 18:23:51;;;;;;;0.63;0.40;;;23.40;32.30;;;;;;5045475;28;20053;-56
2022/02/04 18:26:20;;;;;;;1.27;0.45;;;23.30;32.20;;;;;;5046323;28;20044;-59
2022/02/04 18:28:47;;;;;;;1.15;0.60;;;23.30;32.20;;;;;;5045716;28;20069;-52
2022/02/04 18:31:14;;;;;;;0.80;0.40;;;23.30;32.20;;;;;;5049939;28;20033;-51
2022/02/04 18:33:40;;;;;;;1.23;0.40;;;23.30;32.30;;;;;;5035164;28;20079;-51
2022/02/04 18:36:06;;;;;;;0.70;0.40;;;23.30;32.30;;;;;;5034251;28;20025;-53
2022/02/04 18:38:45;;;;;;;1.65;0.60;;;23.30;32.30;;;;;;5034033;28;20045;-51
2022/02/04 18:41:31;;;;;;;0.43;0.35;;;23.30;32.40;;;;;;5035453;28;20039;-55
2022/02/04 18:44:04;;;;;;;0.57;0.35;;;23.30;32.40;;;;;;5051900;28;20032;-51
2022/02/04 18:49:11;;;;;;;1.35;0.45;;;23.30;32.50;;;;;;5052011;28;20431;-50
2022/02/04 18:59:27;;;;;;;1.67;0.65;;;23.30;32.50;;;;;;5034522;28;20036;-50
2022/02/04 19:01:53;;;;;;;1.63;0.70;;;23.20;32.50;;;;;;5037427;28;20029;-53
2022/02/04 19:04:24;;;;;;;2.22;0.85;;;23.20;32.60;;;;;;5039009;28;20032;-54
2022/02/04 19:06:59;;;;;;;1.10;0.65;;;23.10;32.60;;;;;;5035544;28;20135;-52
2022/02/04 19:09:25;;;;;;;1.15;0.50;;;23.00;32.60;;;;;;5048364;28;20029;-56
2022/02/04 19:11:55;;;;;;;2.10;0.70;;;23.00;32.60;;;;;;5056961;28;20347;-53
2022/02/04 19:15:20;;;;;;;1.27;0.60;;;23.00;32.70;;;;;;5052622;28;20440;-50
2022/02/04 19:17:14;;;;;;;1.48;0.63;;;22.90;32.70;;;;;;5045764;28;20083;-54
2022/02/04 19:24:37;;;;;;;2.47;0.73;;;22.80;32.80;;;;;;5042093;28;20025;-52
2022/02/04 19:27:03;;;;;;;1.05;0.55;;;22.80;32.70;;;;;;5037118;28;20222;-51
2022/02/04 19:29:29;;;;;;;1.85;0.65;;;22.80;32.80;;;;;;5046938;28;20395;-53
2022/02/04 19:31:56;;;;;;;0.88;0.43;;;22.80;33.20;;;;;;5056679;28;20017;-50
2022/02/04 19:34:24;;;;;;;1.77;0.60;;;22.80;32.90;;;;;;5051780;28;20071;-48
2022/02/04 19:36:55;;;;;;;1.80;0.60;;;22.80;32.90;;;;;;5037178;28;20104;-50
2022/02/04 19:39:22;;;;;;;1.33;0.60;;;22.80;32.90;;;;;;5045433;28;20040;-49
2022/02/04 19:44:36;;;;;;;1.83;0.90;;;22.70;33.50;;;;;;5055623;28;20093;-52
2022/02/04 19:47:08;;;;;;;1.70;0.80;;;22.80;32.90;;;;;;5056573;28;20029;-53
2022/02/04 19:49:47;;;;;;;0.98;0.57;;;22.80;32.90;;;;;;5053478;28;20115;-50
2022/02/04 19:52:28;;;;;;;1.95;0.75;;;22.70;32.90;;;;;;5056512;28;20029;-47
2022/02/04 20:25:01;;;;;;;1.17;0.75;;;22.60;33.00;;;;;;5053705;28;20033;-52
2022/02/04 20:27:28;;;;;;;1.20;0.73;;;22.60;33.00;;;;;;5053525;28;20029;-50
2022/02/04 20:29:55;;;;;;;2.35;0.80;;;22.60;33.00;;;;;;5036192;28;20099;-50
2022/02/04 20:32:21;;;;;;;2.63;1.02;;;22.50;33.00;;;;;;5037847;28;20105;-48
2022/02/04 20:34:47;;;;;;;2.17;0.88;;;22.60;33.30;;;;;;5037850;28;20124;-51